LDZALDSP

Guest
Details From LDZA - Zagreb
To LDSP - SPLIT
Flight Number -
Tags generated
Created
Modified
Stats Distance 133 nm / 246 km
Max Altitude 0 ft / 0 m
Waypoints 2
Social Downloads 3
Likes 0
Share VATSIM

Download

Looking for another format? Having issues loading an existing format? Contact us
Advertisement - Login to hide

Notes

Basic altitude profile: - Ascent Rate: 2500ft/min - Ascent Speed: 250kts - Cruise Altitude: 35000ft - Cruise Speed: 420kts - Descent Rate: 1500ft/min - Descent Speed: 250kts Options: - Use NATs: no - Use PACOTS: no - Use low airways: no - Use high airways: no

Route

LDZA LDSP

ID Type Via Altitude Latitude Longitude Leg Dist Tot Dist Heading (true) Name
O LDZA APT - 0 ft / 0 m 45.74189˚ 16.06720˚ - 0 nm - Zagreb
O LDSP APT - 0 ft / 0 m 43.53903˚ 16.29811˚ 132 nm 132 nm 176° / 176° SPLIT

Altitude Profile

Advertisement - Login to hide

LDZA

Details ICAO LDZA (ZAG)
Name Zagreb
Region Croatia
Timezone Europe/Zagreb (UTC+2.0)
Stats Elevation 353 ft / 108 m (AMSL)
Location 45.741890° 16.067200°
Runways 1
Magnetic Variation 4.009° E

METAR

LDZA 251330Z 09010KT 040V140 9999 FEW030TCU SCT040 21/17 Q1016 TEMPO TSRA FEW025CB

Decode

TAF

TAF LDZA 251125Z 2512/2612 01006KT 9999 SCT030 TX25/2514Z TN15/2604Z PROB40 TEMPO 2512/2521 32015G25KT 4000 TSRA FEW025CB BKN030 PROB30 TEMPO 2602/2606 1500 BCFG PROB30 TEMPO 2608/2612 SHRA SCT030TCU

Decode

Departure Runways

ID Width Length Bearing (true) Bearing (mag) Surface Threshold Offset Overrun Length
05 148 ft / 45 m 10,659 ft / 3,249 m 46.69° 42.68° Asphalt 0 ft / 0 m 195 ft / 59 m
23 148 ft / 45 m 10,659 ft / 3,249 m 226.71° 222.70° Asphalt 0 ft / 0 m 195 ft / 59 m

LDSP

Details ICAO LDSP (SPU)
Name SPLIT
Region Croatia
Timezone Europe/Zagreb (UTC+2.0)
Stats Elevation 79 ft / 24 m (AMSL)
Location 43.539026° 16.298112°
Runways 1
Magnetic Variation 3.885° E

METAR

LDSP 251330Z 22008KT 9999 FEW040 27/17 Q1013 NOSIG

Decode

TAF

TAF LDSP 251125Z 2512/2612 23009KT 9999 FEW040 TX28/2513Z TN19/2603Z PROB30 TEMPO 2512/2515 TS FEW035CB BECMG 2517/2519 31005KT BECMG 2610/2612 23010KT

Decode

Destination Runways

ID Width Length Bearing (true) Bearing (mag) Surface Threshold Offset Overrun Length
05 148 ft / 45 m 8,357 ft / 2,547 m 52.48° 48.60° Asphalt 0 ft / 0 m 76 ft / 23 m
23 148 ft / 45 m 8,357 ft / 2,547 m 232.50° 228.62° Asphalt 525 ft / 160 m 820 ft / 250 m

Approach Navaids

Runway Type Ident Frequency Range Bearing (true) Bearing (mag) Slope Elevation
05 Localiser IST 110.50 MHz 25 nm / 46 km 52.57° 48.69° - 69 ft / 21 m (AMSL)
05 Glidescope IST 110.50 MHz 25 nm / 46 km 52.57° 48.69° 3.00° 52 ft / 16 m (AMSL)

Popular Alternatives